createdAt,value
2022-11-01T00:01:58.735Z,9.45
2022-11-01T00:04:27.101Z,9.45
2022-11-01T00:06:55.155Z,9.42
2022-11-01T00:09:23.104Z,9.41
2022-11-01T00:11:52.363Z,9.40
2022-11-01T00:14:20.966Z,9.38
2022-11-01T00:16:49.511Z,9.40
2022-11-01T00:19:17.573Z,9.39
2022-11-01T00:21:45.838Z,9.40
2022-11-01T00:24:13.728Z,9.39
2022-11-01T00:26:41.937Z,9.36
2022-11-01T00:29:12.256Z,9.38
2022-11-01T00:31:40.162Z,9.40
2022-11-01T00:34:08.303Z,9.41
2022-11-01T00:36:37.521Z,9.40
2022-11-01T00:39:06.706Z,9.38
2022-11-01T00:41:34.999Z,9.35
2022-11-01T00:44:02.894Z,9.36
2022-11-01T00:46:32.359Z,9.36
2022-11-01T00:49:00.265Z,9.35
2022-11-01T00:51:28.266Z,9.35
2022-11-01T00:53:56.149Z,9.34
2022-11-01T00:56:24.035Z,9.32
2022-11-01T00:58:51.940Z,9.31
2022-11-01T01:01:20.369Z,9.31
2022-11-01T01:03:52.927Z,9.33
2022-11-01T01:06:20.795Z,9.33
2022-11-01T01:08:48.678Z,9.34
2022-11-01T01:11:16.575Z,9.33
2022-11-01T01:13:44.449Z,9.34
2022-11-01T01:16:13.932Z,9.34
2022-11-01T01:18:41.842Z,9.30
2022-11-01T01:21:11.509Z,9.30
2022-11-01T01:23:39.351Z,9.28
2022-11-01T01:26:08.439Z,9.29
2022-11-01T01:28:41.675Z,9.27
2022-11-01T01:31:14.054Z,9.28
2022-11-01T01:33:42.508Z,9.28
2022-11-01T01:36:12.038Z,9.27
2022-11-01T01:38:39.864Z,9.24
2022-11-01T01:41:25.166Z,9.24
2022-11-01T01:43:53.300Z,9.22
2022-11-01T01:46:21.509Z,9.23
2022-11-01T01:48:54.553Z,9.22
2022-11-01T01:51:27.470Z,9.21
2022-11-01T01:53:58.334Z,9.19
2022-11-01T01:56:33.089Z,9.19
2022-11-01T01:59:04.661Z,9.17
2022-11-01T02:01:35.411Z,9.19
2022-11-01T02:04:04.595Z,9.18
2022-11-01T02:06:34.733Z,9.15
2022-11-01T02:09:05.424Z,9.15
2022-11-01T02:11:33.720Z,9.12
2022-11-01T02:14:02.844Z,9.11
2022-11-01T02:16:50.344Z,9.09
2022-11-01T02:19:42.262Z,9.08
2022-11-01T02:22:18.144Z,9.04
2022-11-01T02:24:56.375Z,9.01
2022-11-01T02:27:33.902Z,8.99
2022-11-01T02:30:15.043Z,8.95
2022-11-01T02:33:04.600Z,8.93
2022-11-01T02:35:43.240Z,8.91
2022-11-01T02:38:17.101Z,8.90
2022-11-01T02:40:50.718Z,8.88
2022-11-01T02:43:22.021Z,8.86
2022-11-01T02:45:51.416Z,8.81
2022-11-01T02:48:22.943Z,8.79
2022-11-01T02:50:56.230Z,8.75
2022-11-01T02:53:24.734Z,8.74
2022-11-01T02:55:53.237Z,8.70
2022-11-01T02:58:24.274Z,8.65
2022-11-01T03:00:52.565Z,8.61
2022-11-01T03:03:28.037Z,8.57
2022-11-01T03:06:08.850Z,8.55
2022-11-01T03:08:39.825Z,8.50
2022-11-01T03:11:11.689Z,8.46
2022-11-01T03:13:53.651Z,8.43
2022-11-01T03:16:29.563Z,8.34
2022-11-01T03:19:18.963Z,8.37
2022-11-01T03:21:57.232Z,8.34
2022-11-01T03:24:30.235Z,8.34
2022-11-01T03:27:05.803Z,8.34
2022-11-01T03:29:35.323Z,8.33
2022-11-01T03:32:04.217Z,8.33
2022-11-01T03:34:37.491Z,8.30
2022-11-01T03:37:11.290Z,8.26
2022-11-01T03:39:44.028Z,8.25
2022-11-01T03:42:16.572Z,8.22
2022-11-01T03:44:48.378Z,8.24
2022-11-01T03:47:16.580Z,8.25
2022-11-01T03:49:45.822Z,8.25
2022-11-01T03:52:13.664Z,8.23
2022-11-01T03:54:41.572Z,8.23
2022-11-01T03:57:09.426Z,8.19
2022-11-01T03:59:37.582Z,8.14
2022-11-01T04:02:05.629Z,8.12
2022-11-01T04:04:34.006Z,8.12
2022-11-01T04:07:03.274Z,8.11
2022-11-01T04:09:31.198Z,8.05
2022-11-01T04:11:59.078Z,8.03
2022-11-01T04:14:44.137Z,8.00
2022-11-01T04:17:29.534Z,7.96
2022-11-01T04:20:14.841Z,7.93
2022-11-01T04:22:44.400Z,7.92
2022-11-01T04:25:12.235Z,7.91
2022-11-01T04:27:40.111Z,7.86
2022-11-01T04:30:08.869Z,7.85
2022-11-01T04:32:36.715Z,7.80
2022-11-01T04:35:05.054Z,7.65
2022-11-01T04:37:32.900Z,7.46
2022-11-01T04:40:02.123Z,7.39
2022-11-01T04:42:30.207Z,7.35
2022-11-01T04:44:58.099Z,7.31
2022-11-01T04:47:26.015Z,7.23
2022-11-01T04:49:53.890Z,7.20
2022-11-01T04:52:21.824Z,7.18
2022-11-01T04:54:49.748Z,7.15
2022-11-01T04:57:24.400Z,7.15
2022-11-01T04:59:53.338Z,7.15
2022-11-01T05:02:22.178Z,7.15
2022-11-01T05:04:50.491Z,7.16
2022-11-01T05:07:18.335Z,7.17
2022-11-01T05:09:46.175Z,7.16
2022-11-01T05:12:14.040Z,7.14
2022-11-01T05:14:43.353Z,7.13
2022-11-01T05:17:11.792Z,7.10
2022-11-01T05:19:39.794Z,7.07
2022-11-01T05:22:07.973Z,7.02
2022-11-01T05:24:36.255Z,7.00
2022-11-01T05:27:04.529Z,7.00
2022-11-01T05:29:33.261Z,7.01
2022-11-01T05:32:03.534Z,7.03
2022-11-01T05:34:31.499Z,6.97
2022-11-01T05:36:59.369Z,6.96
2022-11-01T05:39:27.234Z,7.01
2022-11-01T05:41:58.230Z,7.06
2022-11-01T05:44:29.706Z,7.07
2022-11-01T05:46:57.666Z,7.08
2022-11-01T05:49:26.906Z,7.13
2022-11-01T05:51:54.767Z,7.13
2022-11-01T05:54:22.715Z,7.10
2022-11-01T05:56:51.817Z,7.09
2022-11-01T05:59:19.644Z,7.04
2022-11-01T06:01:47.611Z,7.00
2022-11-01T06:04:15.870Z,6.95
2022-11-01T06:06:45.138Z,6.95
2022-11-01T06:09:13.085Z,6.91
2022-11-01T06:11:41.936Z,6.88
2022-11-01T06:14:12.046Z,6.85
2022-11-01T06:16:40.153Z,6.86
2022-11-01T06:19:08.296Z,6.83
2022-11-01T06:21:36.236Z,6.81
2022-11-01T06:24:05.892Z,6.76
2022-11-01T06:26:33.900Z,6.74
2022-11-01T06:29:02.810Z,6.80
2022-11-01T06:31:30.918Z,6.83
2022-11-01T06:33:58.958Z,6.83
2022-11-01T06:36:26.878Z,6.86
2022-11-01T06:38:54.869Z,6.85
2022-11-01T06:41:24.090Z,6.90
2022-11-01T06:43:52.171Z,6.93
2022-11-01T06:46:20.093Z,6.96
2022-11-01T06:48:49.445Z,7.02
2022-11-01T06:51:17.335Z,7.07
2022-11-01T06:53:45.353Z,7.13
2022-11-01T06:56:13.248Z,7.16
2022-11-01T06:58:44.783Z,7.22
2022-11-01T07:01:12.732Z,7.29
2022-11-01T07:03:40.706Z,7.36
2022-11-01T07:06:08.849Z,7.41
2022-11-01T07:08:36.902Z,7.45
2022-11-01T07:11:04.950Z,7.52
2022-11-01T07:13:34.005Z,7.60
2022-11-01T07:16:04.344Z,7.64
2022-11-01T07:18:32.021Z,7.69
2022-11-01T07:21:02.993Z,7.74
2022-11-01T07:23:31.743Z,7.79
2022-11-01T07:25:59.600Z,7.84
2022-11-01T07:28:27.837Z,7.90
2022-11-01T07:30:56.829Z,7.94
2022-11-01T07:33:26.192Z,7.99
2022-11-01T07:35:54.079Z,8.04
2022-11-01T07:38:21.929Z,8.09
2022-11-01T07:40:52.420Z,8.14
2022-11-01T07:43:20.539Z,8.19
2022-11-01T07:45:48.904Z,8.25
2022-11-01T07:48:18.689Z,8.29
2022-11-01T07:50:48.226Z,8.34
2022-11-01T07:53:18.396Z,8.38
2022-11-01T07:55:47.108Z,8.45
2022-11-01T07:58:16.264Z,8.47
2022-11-01T08:00:45.647Z,8.51
2022-11-01T08:03:15.548Z,8.56
2022-11-01T08:05:44.505Z,8.59
2022-11-01T08:08:14.091Z,8.63
2022-11-01T08:10:42.347Z,8.69
2022-11-01T08:13:16.009Z,8.75
2022-11-01T08:15:43.952Z,8.79
2022-11-01T08:18:12.270Z,8.80
2022-11-01T08:20:40.951Z,8.85
2022-11-01T08:23:09.415Z,8.88
2022-11-01T08:25:39.135Z,8.92
2022-11-01T08:28:09.974Z,8.95
2022-11-01T08:30:39.555Z,9.00
2022-11-01T08:33:07.720Z,9.04
2022-11-01T08:35:36.314Z,9.09
2022-11-01T08:38:04.893Z,9.14
2022-11-01T08:40:33.587Z,9.19
2022-11-01T08:43:03.287Z,9.23
2022-11-01T08:45:31.580Z,9.31
2022-11-01T08:48:02.934Z,9.38
2022-11-01T08:50:31.008Z,9.44
2022-11-01T08:52:59.016Z,9.49
2022-11-01T08:55:27.126Z,9.53
2022-11-01T08:57:55.077Z,9.59
2022-11-01T09:00:24.371Z,9.63
2022-11-01T09:02:52.439Z,9.66
2022-11-01T09:05:20.292Z,9.72
2022-11-01T09:07:48.949Z,9.77
2022-11-01T09:10:17.511Z,9.81
2022-11-01T09:12:45.614Z,9.85
2022-11-01T09:15:13.757Z,9.89
2022-11-01T09:17:43.002Z,9.89
2022-11-01T09:20:15.204Z,9.91
2022-11-01T09:22:43.086Z,9.95
2022-11-01T09:25:13.998Z,9.99
2022-11-01T09:27:41.849Z,10.00
2022-11-01T09:30:10.844Z,10.03
2022-11-01T09:32:38.773Z,10.04
2022-11-01T09:35:09.155Z,10.05
2022-11-01T09:37:36.827Z,10.03
2022-11-01T09:40:06.248Z,10.07
2022-11-01T09:42:39.893Z,10.09
2022-11-01T09:45:13.856Z,10.07
2022-11-01T09:47:46.157Z,10.11
2022-11-01T09:50:22.687Z,10.12
2022-11-01T09:52:51.632Z,10.16
2022-11-01T09:55:27.455Z,10.17
2022-11-01T09:58:01.911Z,10.17
2022-11-01T10:00:36.464Z,10.17
2022-11-01T10:03:34.338Z,10.16
2022-11-01T10:06:11.846Z,10.17
2022-11-01T10:08:52.870Z,10.17
2022-11-01T10:11:44.727Z,10.18
2022-11-01T10:14:27.303Z,10.19
2022-11-01T10:17:04.954Z,10.22
2022-11-01T10:19:35.421Z,10.20
2022-11-01T10:22:06.973Z,10.14
2022-11-01T10:24:40.345Z,10.18
2022-11-01T10:27:16.861Z,10.19
2022-11-01T10:29:48.687Z,10.19
2022-11-01T10:32:26.017Z,10.16
2022-11-01T10:34:55.864Z,10.16
2022-11-01T10:37:30.737Z,10.16
2022-11-01T10:40:09.272Z,10.15
2022-11-01T10:42:38.458Z,10.16
2022-11-01T10:45:08.939Z,10.17
2022-11-01T10:47:36.700Z,10.13
2022-11-01T10:50:10.487Z,10.18
2022-11-01T10:52:48.936Z,10.19
2022-11-01T10:55:21.015Z,10.17
2022-11-01T10:57:53.647Z,10.17
2022-11-01T11:00:23.753Z,10.21
2022-11-01T11:02:56.384Z,10.22
2022-11-01T11:05:27.209Z,10.21
2022-11-01T11:07:57.514Z,10.20
2022-11-01T11:10:30.270Z,10.21
2022-11-01T11:13:02.304Z,10.22
2022-11-01T11:15:38.903Z,10.22
2022-11-01T11:18:16.164Z,10.24
2022-11-01T11:20:44.856Z,10.24
2022-11-01T11:23:14.424Z,10.26
2022-11-01T11:25:45.006Z,10.28
2022-11-01T11:28:23.598Z,10.30
2022-11-01T11:30:51.647Z,10.30
2022-11-01T11:33:20.524Z,10.31
2022-11-01T11:35:57.795Z,10.32
2022-11-01T11:38:46.675Z,10.31
2022-11-01T11:41:28.787Z,10.32
2022-11-01T11:43:56.982Z,10.34
2022-11-01T11:46:25.497Z,10.34
2022-11-01T11:48:56.988Z,10.35
2022-11-01T11:51:27.245Z,10.36
2022-11-01T11:54:22.567Z,10.35
2022-11-01T11:56:54.345Z,10.37
2022-11-01T11:59:26.543Z,10.38
2022-11-01T12:02:00.483Z,10.39
2022-11-01T12:04:33.475Z,10.42
2022-11-01T12:07:01.795Z,10.44
2022-11-01T12:09:44.411Z,10.46
2022-11-01T12:12:18.804Z,10.48
2022-11-01T12:14:47.347Z,10.50
2022-11-01T12:17:43.510Z,10.52
2022-11-01T12:20:16.924Z,10.52
2022-11-01T12:22:50.823Z,10.54
2022-11-01T12:25:23.378Z,10.54
2022-11-01T12:28:02.373Z,10.56
2022-11-01T12:30:34.622Z,10.57
2022-11-01T12:33:10.331Z,10.59
2022-11-01T12:35:43.973Z,10.59
2022-11-01T12:38:40.909Z,10.57
2022-11-01T12:41:28.901Z,10.59
2022-11-01T12:44:04.956Z,10.61
2022-11-01T12:46:39.459Z,10.62
2022-11-01T12:49:14.422Z,10.62
2022-11-01T12:51:49.230Z,10.62
2022-11-01T12:54:23.373Z,10.65
2022-11-01T12:56:55.134Z,10.65
2022-11-01T12:59:28.299Z,10.65
2022-11-01T13:02:03.663Z,10.65
2022-11-01T13:04:37.341Z,10.65
2022-11-01T13:07:14.691Z,10.60
2022-11-01T13:09:52.241Z,10.62
2022-11-01T13:12:29.530Z,10.62
2022-11-01T13:15:05.379Z,10.60
2022-11-01T13:17:41.347Z,10.58
2022-11-01T13:20:40.019Z,10.57
2022-11-01T13:23:17.185Z,10.58
2022-11-01T13:25:52.599Z,10.58
2022-11-01T13:28:50.183Z,10.59
2022-11-01T13:31:31.850Z,10.60
2022-11-01T13:34:17.029Z,10.61
2022-11-01T13:36:52.698Z,10.62
2022-11-01T13:39:30.113Z,10.61
2022-11-01T13:42:05.561Z,10.61
2022-11-01T13:44:41.717Z,10.59
2022-11-01T13:47:35.460Z,10.57
2022-11-01T13:50:57.171Z,10.54
2022-11-01T13:53:32.309Z,10.53
2022-11-01T13:56:03.749Z,10.54
2022-11-01T13:58:32.783Z,10.54
2022-11-01T14:01:29.972Z,10.54
2022-11-01T14:04:47.661Z,10.52
2022-11-01T14:07:17.378Z,10.50
2022-11-01T14:09:47.456Z,10.50
2022-11-01T14:12:37.630Z,10.48
2022-11-01T14:15:21.410Z,10.49
2022-11-01T14:18:04.130Z,10.49
2022-11-01T14:20:42.660Z,10.48
2022-11-01T14:23:51.237Z,10.46
2022-11-01T14:26:47.903Z,10.43
2022-11-01T14:29:15.846Z,10.41
2022-11-01T14:31:47.467Z,10.43
2022-11-01T14:34:38.990Z,10.41
2022-11-01T14:37:29.546Z,10.38
2022-11-01T14:40:00.842Z,10.29
2022-11-01T14:42:38.466Z,10.34
2022-11-01T14:45:24.005Z,10.32
2022-11-01T14:47:54.122Z,10.33
2022-11-01T14:50:31.080Z,10.31
2022-11-01T14:53:05.998Z,10.28
2022-11-01T14:55:37.523Z,10.27
2022-11-01T14:58:11.805Z,10.28
2022-11-01T15:00:40.468Z,10.26
2022-11-01T15:03:11.043Z,10.26
2022-11-01T15:05:46.752Z,10.24
2022-11-01T15:08:24.199Z,10.21
2022-11-01T15:10:54.269Z,10.20
2022-11-01T15:13:23.571Z,10.20
2022-11-01T15:16:06.326Z,10.20
2022-11-01T15:18:38.346Z,10.19
2022-11-01T15:23:52.735Z,10.15
2022-11-01T15:26:25.470Z,10.16
2022-11-01T15:28:56.322Z,10.15
2022-11-01T15:31:24.413Z,10.11
2022-11-01T15:33:57.289Z,10.09
2022-11-01T15:36:32.871Z,10.07
2022-11-01T15:39:02.722Z,10.08
2022-11-01T15:41:32.838Z,10.07
2022-11-01T15:44:02.762Z,10.05
2022-11-01T15:46:34.437Z,10.03
2022-11-01T15:49:07.718Z,10.02
2022-11-01T15:51:42.102Z,10.01
2022-11-01T15:54:20.939Z,9.99
2022-11-01T15:56:53.275Z,9.96
2022-11-01T15:59:27.121Z,9.95
2022-11-01T16:01:57.537Z,9.93
2022-11-01T16:04:28.898Z,9.92
2022-11-01T16:07:06.549Z,9.89
2022-11-01T16:09:40.784Z,9.88
2022-11-01T16:12:18.052Z,9.87
2022-11-01T16:14:55.414Z,9.88
2022-11-01T16:17:26.566Z,9.87
2022-11-01T16:19:55.240Z,9.87
2022-11-01T16:22:35.751Z,9.85
2022-11-01T16:25:04.967Z,9.77
2022-11-01T16:27:33.136Z,9.80
2022-11-01T16:30:08.333Z,9.83
2022-11-01T16:32:36.808Z,9.83
2022-11-01T16:35:30.667Z,9.84
2022-11-01T16:38:00.228Z,9.84
2022-11-01T16:40:32.178Z,9.84
2022-11-01T16:43:00.894Z,9.83
2022-11-01T16:45:29.186Z,9.82
2022-11-01T16:47:58.487Z,9.81
2022-11-01T16:50:26.545Z,9.79
2022-11-01T16:52:54.693Z,9.79
2022-11-01T16:55:27.239Z,9.78
2022-11-01T16:57:56.950Z,9.77
2022-11-01T17:00:24.825Z,9.76
2022-11-01T17:02:56.094Z,9.75
2022-11-01T17:05:24.667Z,9.72
2022-11-01T17:07:55.775Z,9.70
2022-11-01T17:10:26.826Z,9.68
2022-11-01T17:12:57.773Z,9.69
2022-11-01T17:15:27.337Z,9.68
2022-11-01T17:17:56.047Z,9.65
2022-11-01T17:20:28.097Z,9.64
2022-11-01T17:22:58.670Z,9.64
2022-11-01T17:25:30.721Z,9.63
2022-11-01T17:27:58.635Z,9.61
2022-11-01T17:30:26.975Z,9.63
2022-11-01T17:32:54.902Z,9.60
2022-11-01T17:35:25.810Z,9.60
2022-11-01T17:37:55.874Z,9.62
2022-11-01T17:40:25.866Z,9.63
2022-11-01T17:42:55.509Z,9.60
2022-11-01T17:45:23.738Z,9.60
2022-11-01T17:47:53.912Z,9.58
2022-11-01T17:50:22.467Z,9.57
2022-11-01T17:52:50.472Z,9.57
2022-11-01T17:55:18.815Z,9.56
2022-11-01T17:57:46.832Z,9.54
2022-11-01T18:00:17.272Z,9.52
2022-11-01T18:02:45.126Z,9.45
2022-11-01T18:05:13.922Z,9.50
2022-11-01T18:07:43.702Z,9.51
2022-11-01T18:10:18.941Z,9.49
2022-11-01T18:12:59.089Z,9.50
2022-11-01T18:15:35.581Z,9.48
2022-11-01T18:18:24.546Z,9.48
2022-11-01T18:21:03.980Z,9.49
2022-11-01T18:23:32.886Z,9.46
2022-11-01T18:26:00.803Z,9.49
2022-11-01T18:28:30.309Z,9.50
2022-11-01T18:31:01.667Z,9.48
2022-11-01T18:33:35.199Z,9.47
2022-11-01T18:36:08.834Z,9.47
2022-11-01T18:38:42.937Z,9.46
2022-11-01T18:41:14.259Z,9.47
2022-11-01T18:43:43.167Z,9.45
2022-11-01T18:46:26.321Z,9.42
2022-11-01T18:48:59.787Z,9.44
2022-11-01T18:51:29.721Z,9.46
2022-11-01T18:54:11.324Z,9.47
2022-11-01T18:56:41.046Z,9.49
2022-11-01T18:59:13.865Z,9.47
2022-11-01T19:01:43.985Z,9.46
2022-11-01T19:04:20.813Z,9.48
2022-11-01T19:06:49.599Z,9.49
2022-11-01T19:09:24.184Z,9.50
2022-11-01T19:11:58.346Z,9.50
2022-11-01T19:14:27.266Z,9.50
2022-11-01T19:16:57.605Z,9.49
2022-11-01T19:19:25.390Z,9.43
2022-11-01T19:21:57.501Z,9.47
2022-11-01T19:24:33.129Z,9.49
2022-11-01T19:27:02.656Z,9.49
2022-11-01T19:29:34.822Z,9.48
2022-11-01T19:32:05.492Z,9.49
2022-11-01T19:34:38.474Z,9.50
2022-11-01T19:37:20.621Z,9.50
2022-11-01T19:39:48.702Z,9.51
2022-11-01T19:42:25.228Z,9.52
2022-11-01T19:44:57.096Z,9.53
2022-11-01T19:47:39.105Z,9.55
2022-11-01T19:50:26.453Z,9.60
2022-11-01T19:52:56.965Z,9.60
2022-11-01T19:55:39.860Z,9.63
2022-11-01T19:58:39.323Z,9.64
2022-11-01T20:01:41.018Z,9.64
2022-11-01T20:04:27.373Z,9.65
2022-11-01T20:07:01.207Z,9.66
2022-11-01T20:09:31.210Z,9.66
2022-11-01T20:11:59.827Z,9.64
2022-11-01T20:14:27.986Z,9.65
2022-11-01T20:16:55.884Z,9.63
2022-11-01T20:19:25.361Z,9.63
2022-11-01T20:21:53.280Z,9.59
2022-11-01T20:24:21.426Z,9.60
2022-11-01T20:26:49.435Z,9.59
2022-11-01T20:29:17.424Z,9.58
2022-11-01T20:31:45.469Z,9.58
2022-11-01T20:34:13.579Z,9.57
2022-11-01T20:36:44.614Z,9.58
2022-11-01T20:39:15.944Z,9.56
2022-11-01T20:41:45.372Z,9.57
2022-11-01T20:44:13.331Z,9.58
2022-11-01T20:46:41.321Z,9.58
2022-11-01T20:49:09.225Z,9.58
2022-11-01T20:51:37.144Z,9.59
2022-11-01T20:54:06.566Z,9.60
2022-11-01T20:56:34.510Z,9.59
2022-11-01T21:01:35.437Z,9.62
2022-11-01T21:04:03.439Z,9.62
2022-11-01T21:06:33.510Z,9.63
2022-11-01T21:09:03.750Z,9.63
2022-11-01T21:11:44.104Z,9.64
2022-11-01T21:14:16.625Z,9.64
2022-11-01T21:16:44.569Z,9.66
2022-11-01T21:19:18.779Z,9.66
2022-11-01T21:21:50.539Z,9.67
2022-11-01T21:24:29.182Z,9.68
2022-11-01T21:27:24.058Z,9.68
2022-11-01T21:29:53.019Z,9.69
2022-11-01T21:32:30.559Z,9.71
2022-11-01T21:34:59.053Z,9.73
2022-11-01T21:37:30.117Z,9.74
2022-11-01T21:40:05.970Z,9.77
2022-11-01T21:42:38.340Z,9.78
2022-11-01T21:45:28.575Z,9.80
2022-11-01T21:47:58.974Z,9.80
2022-11-01T21:50:26.839Z,9.81
2022-11-01T21:52:54.762Z,9.83
2022-11-01T21:55:23.138Z,9.85
2022-11-01T21:57:52.414Z,9.87
2022-11-01T22:00:20.383Z,9.89
2022-11-01T22:02:48.307Z,9.91
2022-11-01T22:05:16.490Z,9.94
2022-11-01T22:07:44.366Z,9.94
2022-11-01T22:10:12.299Z,9.96
2022-11-01T22:12:40.166Z,9.97
2022-11-01T22:15:11.839Z,9.98
2022-11-01T22:17:39.757Z,9.98
2022-11-01T22:20:08.253Z,10.00
2022-11-01T22:22:36.135Z,10.02
2022-11-01T22:25:05.222Z,10.03
2022-11-01T22:27:33.276Z,10.02
2022-11-01T22:30:01.390Z,10.04
2022-11-01T22:32:31.022Z,10.04
2022-11-01T22:34:59.116Z,10.05
2022-11-01T22:37:28.475Z,10.06
2022-11-01T22:39:56.348Z,10.07
2022-11-01T22:42:27.317Z,10.08
2022-11-01T22:44:55.342Z,10.04
2022-11-01T22:47:27.589Z,10.08
2022-11-01T22:49:58.665Z,10.09
2022-11-01T22:52:32.909Z,10.10
2022-11-01T22:55:05.740Z,10.12
2022-11-01T22:57:36.317Z,10.14
2022-11-01T23:00:24.813Z,10.15
2022-11-01T23:02:55.537Z,10.14
2022-11-01T23:05:26.682Z,10.15
2022-11-01T23:07:56.849Z,10.13
2022-11-01T23:10:28.098Z,10.17
2022-11-01T23:13:19.681Z,10.18
2022-11-01T23:15:47.748Z,10.19
2022-11-01T23:18:22.712Z,10.19
2022-11-01T23:20:57.410Z,10.21
2022-11-01T23:23:26.252Z,10.22
2022-11-01T23:25:55.359Z,10.22
2022-11-01T23:28:26.355Z,10.24
2022-11-01T23:30:55.413Z,10.24
2022-11-01T23:33:24.575Z,10.25
2022-11-01T23:35:56.950Z,10.24
2022-11-01T23:38:35.748Z,10.28
2022-11-01T23:41:04.214Z,10.27
2022-11-01T23:43:37.096Z,10.26
2022-11-01T23:46:05.548Z,10.29
2022-11-01T23:48:33.533Z,10.29
2022-11-01T23:51:02.895Z,10.31
2022-11-01T23:53:35.340Z,10.31
2022-11-01T23:56:07.475Z,10.33
2022-11-01T23:58:37.114Z,10.34
